Time;durP1;ratioP1;P1;durP2;ratioP2;P2;SDS_P1;SDS_P2;PMS_P1;PMS_P2;Temp;Humidity;BMP_temperature;BMP_pressure;BME280_temperature;BME280_humidity;BME280_pressure;Samples;Min_cycle;Max_cycle;Signal;HPM_P1;HPM_P2
2022/03/05 00:07:40;;;;;;;21.88;11.57;;;0.10;99.90;;;;;;5068985;28;19920;-69
2022/03/05 00:10:14;;;;;;;21.40;12.13;;;0.00;99.90;;;;;;5121001;27;20505;-69
2022/03/05 00:12:57;;;;;;;18.45;10.88;;;0.00;99.90;;;;;;5147340;27;20045;-69
2022/03/05 00:16:11;;;;;;;20.55;12.05;;;0.00;99.90;;;;;;5147875;27;20116;-69
2022/03/05 00:18:46;;;;;;;21.58;12.27;;;-0.10;99.90;;;;;;5148143;27;20031;-69
2022/03/05 00:21:28;;;;;;;21.90;11.25;;;-0.10;99.90;;;;;;5148591;27;20080;-69
2022/03/05 00:23:59;;;;;;;23.77;12.77;;;-0.10;99.90;;;;;;5147852;27;20035;-69
2022/03/05 00:29:31;;;;;;;21.58;11.57;;;-0.10;99.90;;;;;;5137452;27;20058;-69
2022/03/05 00:32:09;;;;;;;22.25;12.18;;;-0.10;99.90;;;;;;5149256;27;20106;-69
2022/03/05 00:35:07;;;;;;;20.17;11.00;;;0.20;99.90;;;;;;5147103;27;20039;-70
2022/03/05 00:37:50;;;;;;;22.33;11.68;;;-0.10;99.90;;;;;;5120507;27;20069;-69
2022/03/05 00:40:22;;;;;;;19.15;11.43;;;-0.10;99.90;;;;;;5147431;27;20043;-69
2022/03/05 00:45:47;;;;;;;21.25;11.55;;;-0.20;99.90;;;;;;5141664;27;20034;-68
2022/03/05 00:48:17;;;;;;;21.40;11.90;;;-0.20;99.90;;;;;;5145594;27;20062;-69
2022/03/05 00:50:43;;;;;;;20.80;11.35;;;-0.20;99.90;;;;;;5146991;27;20114;-69
2022/03/05 00:53:17;;;;;;;21.08;10.82;;;-0.20;99.90;;;;;;5145840;27;20181;-68
2022/03/05 00:56:00;;;;;;;22.88;11.82;;;-0.20;99.90;;;;;;5146711;27;20047;-69
2022/03/05 00:58:31;;;;;;;21.40;11.32;;;-0.20;99.90;;;;;;5142312;27;20467;-69
2022/03/05 01:01:04;;;;;;;19.58;11.48;;;-0.20;99.90;;;;;;5145906;27;20379;-69
2022/03/05 01:03:39;;;;;;;19.30;10.85;;;-0.30;99.90;;;;;;5146818;27;20348;-69
2022/03/05 01:06:16;;;;;;;19.52;11.40;;;-0.30;99.90;;;;;;5148819;27;20031;-69
2022/03/05 01:08:45;;;;;;;20.25;10.98;;;-0.30;99.90;;;;;;5144074;27;20038;-68
2022/03/05 01:11:16;;;;;;;20.83;10.52;;;-0.30;99.90;;;;;;5146177;27;20664;-69
2022/03/05 01:14:11;;;;;;;20.70;11.27;;;-0.30;99.90;;;;;;5146051;27;20039;-68
2022/03/05 01:16:39;;;;;;;19.67;11.27;;;-0.20;99.90;;;;;;5143799;27;20087;-68
2022/03/05 01:19:08;;;;;;;18.20;10.68;;;-0.30;99.90;;;;;;5147795;27;20035;-68
2022/03/05 01:21:38;;;;;;;19.45;11.38;;;-0.30;99.90;;;;;;5146591;27;20122;-69
2022/03/05 01:24:10;;;;;;;21.55;11.02;;;-0.30;99.90;;;;;;5144497;27;20391;-69
2022/03/05 01:26:43;;;;;;;20.05;10.75;;;-0.40;99.90;;;;;;5146863;27;20078;-69
2022/03/05 01:29:12;;;;;;;18.55;10.27;;;-0.40;99.90;;;;;;5147091;27;20030;-69
2022/03/05 01:31:44;;;;;;;23.95;11.18;;;-0.40;99.90;;;;;;5147170;27;20138;-68
2022/03/05 01:34:18;;;;;;;22.88;11.50;;;-0.40;99.90;;;;;;5144493;27;20053;-69
2022/03/05 01:36:58;;;;;;;22.10;11.10;;;-0.50;99.90;;;;;;5146956;27;20034;-69
2022/03/05 01:39:38;;;;;;;20.55;9.93;;;-0.50;99.90;;;;;;5150006;27;20023;-68
2022/03/05 01:42:27;;;;;;;20.70;10.43;;;-0.50;99.90;;;;;;5148588;27;20034;-69
2022/03/05 01:45:15;;;;;;;17.67;9.98;;;-0.50;99.90;;;;;;5150203;27;20070;-69
2022/03/05 01:47:49;;;;;;;20.38;10.77;;;-0.60;99.90;;;;;;5132431;27;20046;-69
2022/03/05 01:50:42;;;;;;;22.00;11.18;;;-0.60;99.90;;;;;;5150103;27;20565;-69
2022/03/05 01:53:18;;;;;;;20.80;11.32;;;-0.60;99.90;;;;;;5149786;27;20154;-69
2022/03/05 01:55:49;;;;;;;20.05;10.80;;;-0.60;99.90;;;;;;5148729;27;20086;-69
2022/03/05 01:58:25;;;;;;;19.80;10.98;;;-0.60;99.90;;;;;;5151056;27;20391;-69
2022/03/05 02:01:13;;;;;;;19.83;10.40;;;-0.60;99.90;;;;;;5149639;27;20026;-69
2022/03/05 02:04:20;;;;;;;19.83;10.02;;;-0.60;99.90;;;;;;5133368;27;20099;-69
2022/03/05 02:07:00;;;;;;;18.77;10.25;;;-0.60;99.90;;;;;;5148680;27;20039;-68
2022/03/05 02:09:31;;;;;;;21.48;10.93;;;-0.60;99.90;;;;;;5148591;27;20030;-68
2022/03/05 02:12:02;;;;;;;20.25;10.98;;;-0.70;99.90;;;;;;5148739;27;20047;-69
2022/03/05 02:14:31;;;;;;;16.65;9.18;;;-0.70;99.90;;;;;;5147013;27;20046;-69
2022/03/05 02:17:03;;;;;;;21.40;10.38;;;-0.70;99.90;;;;;;5147611;27;20045;-68
2022/03/05 02:19:52;;;;;;;22.13;11.00;;;-0.70;99.90;;;;;;5146921;27;20045;-69
2022/03/05 02:22:29;;;;;;;16.80;9.70;;;-0.70;99.90;;;;;;5148818;27;20057;-69
2022/03/05 02:25:07;;;;;;;20.80;10.30;;;-0.70;99.90;;;;;;5150256;27;20060;-69
2022/03/05 02:27:47;;;;;;;20.85;10.50;;;-0.70;99.90;;;;;;5148813;27;20043;-68
2022/03/05 02:30:31;;;;;;;19.35;9.63;;;-0.70;99.90;;;;;;5146073;27;20107;-68
2022/03/05 02:33:02;;;;;;;19.50;10.00;;;-0.70;99.90;;;;;;5147816;27;20668;-69
2022/03/05 02:35:30;;;;;;;19.45;10.38;;;-0.70;99.90;;;;;;5147527;27;20445;-68
2022/03/05 02:38:10;;;;;;;17.05;9.75;;;-0.80;99.90;;;;;;5147569;27;20390;-69
2022/03/05 02:40:41;;;;;;;19.60;10.07;;;-0.80;99.90;;;;;;5147095;27;20398;-69
2022/03/05 02:43:14;;;;;;;23.08;9.70;;;-0.80;99.90;;;;;;5150095;27;20048;-69
2022/03/05 02:45:45;;;;;;;20.05;10.27;;;-0.80;99.90;;;;;;5149256;27;20429;-68
2022/03/05 02:48:25;;;;;;;17.45;9.43;;;-0.80;99.90;;;;;;5147707;27;20471;-69
2022/03/05 02:50:56;;;;;;;19.35;9.65;;;-0.60;99.90;;;;;;5147446;27;20034;-68
2022/03/05 02:53:29;;;;;;;16.77;8.55;;;-0.80;99.90;;;;;;5149205;27;20047;-69
2022/03/05 02:55:57;;;;;;;19.48;10.13;;;-0.80;99.90;;;;;;5148403;27;20039;-69
2022/03/05 02:58:35;;;;;;;17.95;9.43;;;-0.80;99.90;;;;;;5148766;27;20095;-69
2022/03/05 03:01:15;;;;;;;17.42;9.95;;;-0.80;99.90;;;;;;5147531;27;20039;-69
2022/03/05 03:03:41;;;;;;;18.13;9.45;;;-0.80;99.90;;;;;;5147177;27;20046;-69
2022/03/05 03:06:13;;;;;;;19.98;9.57;;;-0.70;99.90;;;;;;5149872;27;20039;-69
2022/03/05 03:08:53;;;;;;;16.90;9.38;;;-0.80;99.90;;;;;;5148150;27;20070;-69
2022/03/05 03:11:25;;;;;;;21.30;10.30;;;-0.80;99.90;;;;;;5147731;27;20124;-68
2022/03/05 03:13:53;;;;;;;17.23;9.35;;;-0.90;99.90;;;;;;5148456;27;20038;-68
2022/03/05 03:16:37;;;;;;;18.10;9.57;;;-0.90;99.90;;;;;;5149068;27;20118;-69
2022/03/05 03:19:17;;;;;;;20.52;9.73;;;-0.90;99.90;;;;;;5147762;27;20031;-68
2022/03/05 03:22:06;;;;;;;18.60;9.75;;;-1.00;99.90;;;;;;5148898;27;20047;-69
2022/03/05 03:24:55;;;;;;;18.15;9.52;;;-1.00;99.90;;;;;;5149265;27;20038;-69
2022/03/05 03:27:25;;;;;;;16.85;9.25;;;-1.00;99.90;;;;;;5147261;27;20478;-69
2022/03/05 03:30:00;;;;;;;16.38;8.73;;;-1.00;99.90;;;;;;5148486;27;20509;-69
2022/03/05 03:32:44;;;;;;;17.98;9.27;;;-1.10;99.90;;;;;;5149212;27;20079;-69
2022/03/05 03:35:12;;;;;;;15.40;8.60;;;-1.00;99.90;;;;;;5146897;27;20043;-68
2022/03/05 03:37:41;;;;;;;19.08;9.30;;;-1.00;99.90;;;;;;5149577;27;20679;-69
2022/03/05 03:40:18;;;;;;;16.48;9.13;;;-1.00;99.90;;;;;;5146966;27;20043;-69
2022/03/05 03:43:13;;;;;;;18.10;9.63;;;-1.00;99.90;;;;;;5147104;27;20223;-69
2022/03/05 03:45:47;;;;;;;17.08;8.90;;;-1.00;99.90;;;;;;5146922;27;20099;-69
2022/03/05 03:48:30;;;;;;;16.52;9.13;;;-1.00;99.90;;;;;;5147741;27;20083;-69
2022/03/05 03:51:14;;;;;;;17.52;9.02;;;-1.00;99.90;;;;;;5147726;27;20045;-69
2022/03/05 03:53:42;;;;;;;17.88;9.40;;;-1.00;99.90;;;;;;5148967;27;20133;-69
2022/03/05 03:56:15;;;;;;;15.30;8.50;;;-1.10;99.90;;;;;;5148111;27;20419;-69
2022/03/05 03:58:50;;;;;;;18.27;9.10;;;-1.10;99.90;;;;;;5147785;27;20047;-69
2022/03/05 04:01:18;;;;;;;15.15;8.95;;;-1.10;99.90;;;;;;5144980;27;20031;-69
2022/03/05 04:03:50;;;;;;;18.33;9.55;;;-0.90;99.90;;;;;;5146918;27;20049;-69
2022/03/05 04:08:41;;;;;;;19.05;9.48;;;-1.10;99.90;;;;;;5148126;27;20043;-69
2022/03/05 04:09:24;;;;;;;18.70;9.57;;;-1.10;99.90;;;;;;5147027;27;20687;-69
2022/03/05 04:11:55;;;;;;;18.52;9.07;;;-1.10;99.90;;;;;;5149733;27;20035;-68
2022/03/05 04:14:34;;;;;;;17.80;9.25;;;-1.10;99.90;;;;;;5147145;27;20106;-68
2022/03/05 04:17:12;;;;;;;16.50;8.55;;;-1.10;99.90;;;;;;5146756;27;20034;-69
2022/03/05 04:20:03;;;;;;;16.83;8.77;;;-1.10;99.90;;;;;;5147584;27;20099;-69
2022/03/05 04:22:39;;;;;;;15.95;8.52;;;-1.10;99.90;;;;;;5104093;28;20047;-69
2022/03/05 04:25:11;;;;;;;16.38;8.73;;;-1.10;99.90;;;;;;5106187;28;20055;-68
2022/03/05 04:27:48;;;;;;;16.40;8.80;;;-1.10;99.90;;;;;;5105336;28;20070;-69
2022/03/05 04:30:24;;;;;;;16.63;8.60;;;-1.10;99.90;;;;;;5105381;28;20118;-69
2022/03/05 04:32:54;;;;;;;15.52;8.68;;;-1.20;99.90;;;;;;5105715;28;20055;-68
2022/03/05 04:35:37;;;;;;;16.60;8.05;;;-1.20;99.90;;;;;;5106396;28;20038;-68
2022/03/05 04:38:12;;;;;;;17.63;9.48;;;-1.20;99.90;;;;;;5104231;28;20071;-68
2022/03/05 04:40:44;;;;;;;14.45;8.43;;;-1.20;99.90;;;;;;5106478;28;20438;-68
2022/03/05 04:43:10;;;;;;;16.85;8.77;;;-1.20;99.90;;;;;;5103554;28;20035;-68
2022/03/05 04:45:45;;;;;;;18.60;9.50;;;-1.30;99.90;;;;;;5104677;28;20104;-68
2022/03/05 04:48:14;;;;;;;17.67;8.48;;;-1.20;99.90;;;;;;5105255;28;20028;-68
2022/03/05 04:50:56;;;;;;;18.65;8.70;;;-1.30;99.90;;;;;;5106324;28;20120;-68
2022/03/05 04:53:25;;;;;;;23.90;9.23;;;-1.20;99.90;;;;;;5106713;28;20047;-68
2022/03/05 04:56:02;;;;;;;19.98;9.18;;;-1.20;99.90;;;;;;5105813;28;20379;-68
2022/03/05 04:58:34;;;;;;;19.33;9.47;;;-1.20;99.90;;;;;;5107256;28;20427;-68
2022/03/05 05:01:01;;;;;;;19.40;9.57;;;-1.20;99.90;;;;;;5105445;28;20071;-68
2022/03/05 05:03:30;;;;;;;17.15;8.63;;;-1.20;99.90;;;;;;5105033;28;20051;-68
2022/03/05 05:06:01;;;;;;;20.27;9.15;;;-1.20;99.90;;;;;;5102053;28;20039;-68
2022/03/05 05:08:39;;;;;;;20.00;9.25;;;-1.30;99.90;;;;;;5107879;28;20028;-68
2022/03/05 05:11:05;;;;;;;19.15;8.93;;;-1.30;99.90;;;;;;5104429;28;20407;-68
2022/03/05 05:13:33;;;;;;;20.63;9.38;;;-1.30;99.90;;;;;;5105640;28;20483;-68
2022/03/05 05:16:16;;;;;;;20.15;9.40;;;-1.30;99.90;;;;;;5111120;28;20429;-68
2022/03/05 05:21:35;;;;;;;19.20;9.85;;;-1.30;99.90;;;;;;5141811;27;20079;-68
2022/03/05 05:24:21;;;;;;;25.27;9.95;;;-1.30;99.90;;;;;;5151714;27;20105;-69
2022/03/05 05:27:01;;;;;;;19.02;9.82;;;-1.30;99.90;;;;;;5149842;27;20050;-68
2022/03/05 05:29:56;;;;;;;17.70;9.27;;;-1.30;99.90;;;;;;5150961;27;20081;-69
2022/03/05 05:32:23;;;;;;;19.38;9.75;;;-1.40;99.90;;;;;;5151437;27;20438;-68
2022/03/05 05:34:49;;;;;;;20.25;9.57;;;-1.40;99.90;;;;;;5147403;27;20077;-68
2022/03/05 05:37:40;;;;;;;23.67;10.60;;;-1.40;99.90;;;;;;5150929;27;20417;-68
2022/03/05 05:40:16;;;;;;;19.17;9.18;;;-1.40;99.90;;;;;;5165611;27;20115;-68
2022/03/05 05:42:42;;;;;;;;;;;-1.40;99.90;;;;;;5150562;27;20046;-68
2022/03/05 05:45:26;;;;;;;21.15;10.57;;;-1.40;99.90;;;;;;5150106;27;19915;-68
2022/03/05 05:47:54;;;;;;;23.60;10.90;;;-1.40;99.90;;;;;;5149610;27;20135;-68
2022/03/05 05:50:29;;;;;;;20.35;9.85;;;-1.40;99.90;;;;;;5149859;27;20360;-68
2022/03/05 05:52:57;;;;;;;19.35;10.27;;;-1.40;99.90;;;;;;5149186;27;20038;-69
2022/03/05 05:55:35;;;;;;;23.77;10.38;;;-1.40;99.90;;;;;;5151580;27;20383;-68
2022/03/05 05:58:04;;;;;;;21.75;10.32;;;-1.40;99.90;;;;;;5164541;27;20715;-69
2022/03/05 06:03:31;;;;;;;25.67;10.70;;;-1.40;99.90;;;;;;5149385;27;20046;-69
2022/03/05 06:06:06;;;;;;;22.88;10.30;;;-1.50;99.90;;;;;;5148570;27;20504;-68
2022/03/05 06:08:34;;;;;;;20.53;9.77;;;-1.50;99.90;;;;;;5150645;27;20034;-69
2022/03/05 06:11:06;;;;;;;25.75;11.40;;;-1.50;99.90;;;;;;5149663;27;20058;-68
2022/03/05 06:13:52;;;;;;;22.58;10.73;;;-1.50;99.90;;;;;;5150283;27;20227;-68
2022/03/05 06:16:30;;;;;;;23.17;11.00;;;-1.60;99.90;;;;;;5148420;27;20035;-68
2022/03/05 06:19:00;;;;;;;22.30;10.23;;;-1.60;99.90;;;;;;5152518;27;20481;-68
2022/03/05 06:21:29;;;;;;;20.83;9.98;;;-1.60;99.90;;;;;;5149889;27;20034;-68
2022/03/05 06:24:00;;;;;;;21.20;10.35;;;-1.60;99.90;;;;;;5149707;27;20035;-68
2022/03/05 06:26:38;;;;;;;24.58;11.35;;;-1.60;99.90;;;;;;5148399;27;20144;-68
2022/03/05 06:29:07;;;;;;;25.77;10.90;;;-1.60;99.90;;;;;;5130137;27;20042;-68
2022/03/05 06:31:36;;;;;;;22.08;10.82;;;-1.50;99.90;;;;;;5147109;27;20041;-68
2022/03/05 06:34:04;;;;;;;24.65;11.13;;;-1.50;99.90;;;;;;5143290;27;20129;-68
2022/03/05 06:36:30;;;;;;;22.15;10.50;;;-1.50;99.90;;;;;;5148841;27;20031;-68
2022/03/05 06:38:56;;;;;;;23.05;10.88;;;-1.50;99.90;;;;;;5150946;27;20041;-68
2022/03/05 06:41:37;;;;;;;21.38;10.80;;;-1.50;99.90;;;;;;5146839;27;20190;-68
2022/03/05 06:44:12;;;;;;;26.60;10.85;;;-1.50;99.90;;;;;;5149199;27;20145;-68
2022/03/05 06:46:41;;;;;;;25.95;11.93;;;-1.50;99.90;;;;;;5149965;27;20049;-68
2022/03/05 06:49:09;;;;;;;23.60;10.90;;;-1.50;99.90;;;;;;5148786;27;20518;-68
2022/03/05 06:51:41;;;;;;;25.00;10.75;;;-1.50;99.90;;;;;;5145557;27;20118;-68
2022/03/05 06:54:15;;;;;;;25.40;11.38;;;-1.50;99.90;;;;;;5147928;27;20484;-69
2022/03/05 06:57:01;;;;;;;24.27;11.45;;;-1.40;99.90;;;;;;5149792;27;20026;-68
2022/03/05 06:59:40;;;;;;;22.20;10.52;;;-1.40;99.90;;;;;;5144695;27;20375;-69
2022/03/05 07:02:19;;;;;;;23.45;11.40;;;-1.30;99.90;;;;;;5147782;27;20035;-68
2022/03/05 07:05:06;;;;;;;22.63;11.00;;;-1.30;99.90;;;;;;5147746;27;20114;-69
2022/03/05 07:07:32;;;;;;;23.42;11.25;;;-1.30;99.90;;;;;;5150093;27;20440;-68
2022/03/05 07:10:05;;;;;;;24.08;11.98;;;-1.30;99.90;;;;;;5149494;27;20367;-68
2022/03/05 07:12:36;;;;;;;27.45;13.13;;;-1.20;99.90;;;;;;5145600;27;20399;-68
2022/03/05 07:15:15;;;;;;;24.60;12.88;;;-1.20;99.90;;;;;;5147489;27;20026;-68
2022/03/05 07:17:53;;;;;;;22.13;11.45;;;-1.20;99.90;;;;;;5147018;27;20773;-68
2022/03/05 07:20:53;;;;;;;22.70;11.15;;;-1.20;99.90;;;;;;5145095;27;20378;-68
2022/03/05 07:23:20;;;;;;;22.77;11.15;;;-1.20;99.90;;;;;;5138779;27;20588;-68
2022/03/05 07:25:52;;;;;;;21.60;10.52;;;-1.10;99.90;;;;;;5146197;27;21050;-68
2022/03/05 07:28:22;;;;;;;23.50;12.27;;;-1.00;99.90;;;;;;5147992;27;20402;-68
2022/03/05 07:30:59;;;;;;;22.17;10.75;;;-1.00;99.90;;;;;;5144182;27;20606;-68
2022/03/05 07:33:49;;;;;;;21.05;11.82;;;-0.90;99.90;;;;;;5150784;27;20059;-68
2022/03/05 07:36:24;;;;;;;19.35;9.40;;;-0.80;99.90;;;;;;5142623;27;20103;-68
2022/03/05 07:39:07;;;;;;;23.48;11.52;;;-0.80;99.90;;;;;;5142074;27;20050;-68
2022/03/05 07:44:41;;;;;;;22.38;10.45;;;-0.70;99.90;;;;;;5147347;27;20043;-68
2022/03/05 07:47:10;;;;;;;18.88;9.98;;;-0.60;99.90;;;;;;5149823;27;20532;-68
2022/03/05 07:49:41;;;;;;;22.38;10.07;;;-0.60;99.90;;;;;;5145944;27;20431;-67
2022/03/05 07:52:16;;;;;;;21.60;10.38;;;-0.50;99.90;;;;;;5148917;27;20594;-66
2022/03/05 07:54:52;;;;;;;21.17;10.30;;;-0.50;99.90;;;;;;5149435;27;20031;-68
2022/03/05 08:00:21;;;;;;;19.95;10.05;;;-0.30;99.90;;;;;;5134199;27;20045;-69
2022/03/05 08:02:55;;;;;;;23.90;11.07;;;-0.30;99.90;;;;;;5146852;27;20474;-68
2022/03/05 08:05:30;;;;;;;21.20;10.75;;;-0.20;99.90;;;;;;5145827;27;20046;-69
2022/03/05 08:08:05;;;;;;;24.27;10.73;;;-0.10;99.90;;;;;;5132854;27;20967;-69
2022/03/05 08:10:36;;;;;;;20.05;10.65;;;0.00;99.90;;;;;;5147133;27;20031;-69
2022/03/05 08:13:09;;;;;;;21.45;10.60;;;0.20;99.90;;;;;;5148199;27;20391;-68
2022/03/05 08:15:43;;;;;;;19.67;10.40;;;0.30;99.90;;;;;;5144462;27;20034;-68
2022/03/05 08:18:13;;;;;;;20.38;10.15;;;0.30;99.90;;;;;;5149228;27;20439;-69
2022/03/05 08:20:42;;;;;;;19.08;9.73;;;0.40;99.90;;;;;;5147467;27;20054;-68
2022/03/05 08:23:20;;;;;;;19.58;10.25;;;0.50;99.90;;;;;;5147594;27;20818;-68
2022/03/05 08:25:51;;;;;;;18.85;9.55;;;0.50;99.90;;;;;;5147286;27;20454;-68
2022/03/05 08:28:29;;;;;;;21.20;10.73;;;0.60;99.90;;;;;;5146807;27;20099;-68
2022/03/05 08:31:14;;;;;;;19.83;10.25;;;0.70;99.90;;;;;;5143470;27;20522;-68
2022/03/05 08:33:48;;;;;;;42.10;23.88;;;0.80;99.90;;;;;;5142165;27;21003;-69
2022/03/05 08:36:17;;;;;;;21.58;10.95;;;0.80;99.90;;;;;;5147356;27;20428;-69
2022/03/05 08:38:51;;;;;;;23.73;11.68;;;0.90;99.90;;;;;;5145841;27;20460;-69
2022/03/05 08:41:27;;;;;;;21.02;10.95;;;0.90;99.90;;;;;;5143855;27;20566;-68
2022/03/05 08:43:57;;;;;;;20.15;10.60;;;1.00;99.90;;;;;;5147427;27;20043;-68
2022/03/05 08:46:31;;;;;;;22.42;11.15;;;1.10;99.90;;;;;;5147051;27;20035;-68
2022/03/05 08:48:59;;;;;;;22.92;11.43;;;1.20;99.90;;;;;;5150643;27;20448;-69
2022/03/05 08:51:38;;;;;;;21.55;11.55;;;1.30;99.90;;;;;;5151930;27;20042;-69
2022/03/05 08:54:12;;;;;;;20.73;11.02;;;1.30;99.90;;;;;;5152840;27;20042;-69
2022/03/05 08:56:47;;;;;;;23.65;11.30;;;1.40;99.90;;;;;;5149046;27;20403;-69
2022/03/05 08:59:18;;;;;;;21.10;11.10;;;1.50;99.90;;;;;;5148454;27;20431;-69
2022/03/05 09:02:03;;;;;;;20.10;11.30;;;1.50;99.90;;;;;;5145889;27;20076;-69
2022/03/05 09:04:32;;;;;;;22.70;11.05;;;1.60;99.90;;;;;;5151721;27;20046;-69
2022/03/05 09:07:05;;;;;;;24.17;11.63;;;1.70;99.90;;;;;;5147538;27;20051;-68
2022/03/05 09:13:25;;;;;;;23.45;11.80;;;1.80;99.90;;;;;;5107584;28;20047;-69
2022/03/05 09:15:57;;;;;;;26.38;13.43;;;1.80;99.90;;;;;;5101648;28;20044;-69
2022/03/05 09:18:46;;;;;;;24.10;12.82;;;1.90;99.90;;;;;;5109325;28;20036;-69
2022/03/05 09:21:18;;;;;;;26.20;13.32;;;2.00;99.90;;;;;;5089110;28;20489;-69
2022/03/05 09:24:08;;;;;;;25.88;12.48;;;2.00;99.90;;;;;;5145437;27;20172;-69
2022/03/05 09:26:41;;;;;;;24.65;12.52;;;2.10;99.90;;;;;;5152000;27;20073;-69
2022/03/05 09:29:19;;;;;;;23.58;12.13;;;2.20;99.90;;;;;;5152350;27;20572;-69
2022/03/05 09:31:56;;;;;;;27.45;13.23;;;2.30;99.90;;;;;;5149910;27;20435;-69
2022/03/05 09:34:42;;;;;;;24.30;12.43;;;2.30;99.90;;;;;;5150858;27;20050;-69
2022/03/05 09:37:37;;;;;;;30.80;14.75;;;2.40;99.90;;;;;;5151287;27;20034;-69
2022/03/05 09:40:07;;;;;;;28.08;13.63;;;2.40;99.90;;;;;;5151501;27;20046;-69
2022/03/05 09:42:54;;;;;;;28.02;13.60;;;2.50;99.90;;;;;;5147720;27;20383;-69
2022/03/05 09:45:43;;;;;;;30.20;14.18;;;2.50;99.90;;;;;;5150573;27;21298;-69
2022/03/05 09:48:20;;;;;;;30.88;15.05;;;2.70;99.90;;;;;;5147891;27;20111;-69
2022/03/05 09:54:07;;;;;;;32.13;13.75;;;2.70;99.90;;;;;;5151440;27;20049;-69
2022/03/05 09:57:00;;;;;;;24.27;12.52;;;2.80;99.90;;;;;;5150534;27;20483;-69
2022/03/05 09:59:41;;;;;;;27.35;13.98;;;2.80;99.90;;;;;;5150749;27;20031;-69
2022/03/05 10:02:13;;;;;;;27.48;15.13;;;2.90;99.90;;;;;;5150297;27;20210;-69
2022/03/05 10:04:56;;;;;;;27.77;13.70;;;2.90;99.90;;;;;;5149301;27;20046;-69
2022/03/05 10:07:24;;;;;;;28.45;14.05;;;3.00;99.90;;;;;;5152092;27;20050;-69
2022/03/05 10:10:10;;;;;;;32.95;15.18;;;3.00;99.90;;;;;;5152390;27;20035;-69
2022/03/05 10:12:36;;;;;;;30.95;15.88;;;3.00;99.90;;;;;;5149394;27;20041;-69
2022/03/05 10:15:21;;;;;;;33.17;17.58;;;3.10;99.90;;;;;;5150614;27;20050;-68
2022/03/05 10:18:14;;;;;;;30.30;15.65;;;3.20;99.90;;;;;;5151604;27;20035;-69
2022/03/05 10:20:54;;;;;;;27.27;14.05;;;3.30;99.90;;;;;;5149635;27;20054;-70
2022/03/05 10:23:47;;;;;;;28.75;14.63;;;3.40;99.90;;;;;;5148855;27;20051;-70
2022/03/05 10:26:52;;;;;;;30.55;15.70;;;3.50;99.90;;;;;;5148507;27;20047;-70
2022/03/05 10:30:05;;;;;;;31.95;15.35;;;3.50;99.90;;;;;;5148613;27;20042;-70
2022/03/05 10:32:45;;;;;;;33.20;15.93;;;3.60;99.90;;;;;;5120709;27;20175;-69
2022/03/05 10:35:21;;;;;;;30.45;15.02;;;3.60;99.90;;;;;;5150177;27;20039;-69
2022/03/05 10:38:19;;;;;;;30.58;14.82;;;3.60;99.90;;;;;;5152225;27;20071;-69
2022/03/05 10:40:55;;;;;;;27.73;14.93;;;3.70;99.90;;;;;;5150075;27;20051;-70
2022/03/05 10:43:30;;;;;;;28.08;14.30;;;3.70;99.90;;;;;;5147734;27;20039;-70
2022/03/05 10:46:05;;;;;;;29.67;14.45;;;3.70;99.90;;;;;;5147854;27;20031;-70
2022/03/05 10:48:43;;;;;;;30.42;14.57;;;3.80;99.90;;;;;;5150802;27;20058;-70
2022/03/05 10:51:34;;;;;;;30.55;15.60;;;3.90;99.90;;;;;;5129798;27;20050;-69
2022/03/05 10:54:27;;;;;;;32.60;15.90;;;3.90;99.90;;;;;;5146567;27;20031;-69
2022/03/05 10:57:25;;;;;;;28.23;15.05;;;4.00;99.90;;;;;;5137349;27;20038;-69
2022/03/05 11:00:07;;;;;;;31.65;15.45;;;4.10;99.90;;;;;;5137951;27;20066;-70
2022/03/05 11:02:42;;;;;;;30.25;16.02;;;4.10;99.90;;;;;;5147342;27;20026;-70
2022/03/05 11:05:23;;;;;;;33.28;15.68;;;4.10;99.90;;;;;;5145439;27;20095;-69
2022/03/05 11:08:09;;;;;;;30.77;16.27;;;4.10;99.90;;;;;;5147566;27;20738;-70
2022/03/05 11:10:48;;;;;;;32.92;16.30;;;4.10;99.90;;;;;;5147828;27;20107;-70
2022/03/05 11:13:25;;;;;;;32.47;16.70;;;4.20;99.90;;;;;;5130841;27;20521;-70
2022/03/05 11:15:51;;;;;;;28.77;15.20;;;4.20;99.90;;;;;;5146455;27;20543;-69
2022/03/05 11:21:30;;;;;;;28.95;15.63;;;4.40;99.90;;;;;;5148512;27;20111;-70
2022/03/05 11:23:58;;;;;;;29.38;15.00;;;4.40;99.90;;;;;;5147574;27;20074;-70
2022/03/05 11:26:52;;;;;;;29.83;15.43;;;4.40;99.90;;;;;;5147923;27;20125;-70
2022/03/05 11:29:27;;;;;;;32.10;15.85;;;4.50;99.90;;;;;;5119022;27;20478;-70
2022/03/05 11:32:14;;;;;;;31.90;16.15;;;4.50;99.90;;;;;;5149753;27;20142;-70
2022/03/05 11:35:04;;;;;;;35.85;19.65;;;4.60;99.90;;;;;;5146303;27;20041;-70
2022/03/05 11:37:47;;;;;;;30.98;16.08;;;4.70;99.90;;;;;;5146844;27;20502;-70
2022/03/05 11:40:39;;;;;;;29.83;15.30;;;4.70;99.90;;;;;;5147183;27;20031;-70
2022/03/05 11:43:27;;;;;;;30.58;15.52;;;4.80;99.90;;;;;;5149070;27;20498;-70
2022/03/05 11:49:53;;;;;;;31.92;16.33;;;4.90;99.90;;;;;;5144505;27;20493;-70
2022/03/05 11:53:05;;;;;;;30.40;16.20;;;5.00;99.90;;;;;;5145212;27;20030;-69
2022/03/05 11:55:41;;;;;;;32.60;15.77;;;5.10;99.90;;;;;;5149626;27;20083;-70
2022/03/05 11:58:37;;;;;;;30.50;16.10;;;5.10;99.90;;;;;;5144909;27;20047;-70
2022/03/05 12:01:36;;;;;;;30.25;15.60;;;5.20;99.90;;;;;;5142122;27;20510;-70
2022/03/05 12:05:03;;;;;;;32.53;16.15;;;5.20;99.90;;;;;;5143995;27;20065;-70
2022/03/05 12:08:06;;;;;;;31.75;15.68;;;5.20;99.90;;;;;;5027627;28;20081;-70
2022/03/05 12:11:35;;;;;;;32.63;16.92;;;5.30;99.90;;;;;;5140511;27;20506;-70
2022/03/05 12:14:10;;;;;;;29.83;15.38;;;5.30;99.90;;;;;;5148616;27;21463;-70
2022/03/05 12:17:05;;;;;;;30.35;16.55;;;5.40;99.90;;;;;;5149270;27;20095;-70
2022/03/05 12:20:07;;;;;;;29.08;15.23;;;5.40;99.90;;;;;;5144039;27;20143;-70
2022/03/05 12:22:33;;;;;;;32.92;15.02;;;5.40;99.90;;;;;;5139631;27;20053;-71
2022/03/05 12:25:13;;;;;;;34.88;16.27;;;5.40;99.90;;;;;;5146545;27;20046;-70
2022/03/05 12:28:12;;;;;;;30.15;16.58;;;5.50;99.90;;;;;;5144634;27;21985;-69
2022/03/05 12:30:58;;;;;;;29.63;15.80;;;5.50;99.90;;;;;;5145964;27;20054;-70
2022/03/05 12:33:34;;;;;;;32.42;16.65;;;5.60;99.90;;;;;;5145396;27;20081;-70
2022/03/05 12:36:02;;;;;;;30.73;15.93;;;5.60;99.90;;;;;;5145790;27;20084;-70
2022/03/05 12:38:28;;;;;;;30.48;16.20;;;5.60;99.90;;;;;;5147824;27;20046;-69
2022/03/05 12:41:06;;;;;;;31.73;16.70;;;5.70;99.90;;;;;;5148682;27;20083;-69
2022/03/05 12:43:35;;;;;;;246.07;89.95;;;5.70;99.90;;;;;;5144423;27;20486;-69
2022/03/05 12:46:03;;;;;;;32.17;17.75;;;5.80;99.90;;;;;;5143952;27;20062;-69
2022/03/05 12:48:35;;;;;;;43.25;20.77;;;5.80;99.90;;;;;;5146445;27;20138;-70
2022/03/05 12:51:33;;;;;;;218.98;45.67;;;5.80;99.90;;;;;;5147480;27;20479;-67
2022/03/05 12:54:08;;;;;;;34.80;18.85;;;5.90;99.90;;;;;;5143158;27;20134;-68
2022/03/05 12:56:46;;;;;;;33.47;18.13;;;5.50;99.90;;;;;;5142208;27;20087;-67
2022/03/05 12:59:31;;;;;;;32.40;17.65;;;5.10;99.90;;;;;;5143823;27;20034;-68
2022/03/05 13:02:32;;;;;;;31.95;16.67;;;4.70;99.90;;;;;;5146039;27;20091;-68
2022/03/05 13:05:24;;;;;;;33.45;17.92;;;4.60;99.90;;;;;;5084503;28;20561;-68
2022/03/05 13:07:53;;;;;;;34.42;17.27;;;4.60;99.90;;;;;;5145185;27;20527;-68
2022/03/05 13:10:19;;;;;;;32.45;17.17;;;4.60;99.90;;;;;;5145034;27;20041;-69
2022/03/05 13:13:00;;;;;;;34.45;17.45;;;4.70;99.90;;;;;;5124047;27;20479;-69
2022/03/05 13:15:59;;;;;;;33.17;17.05;;;4.80;99.90;;;;;;5123403;27;20124;-69
2022/03/05 13:18:45;;;;;;;32.47;16.50;;;4.90;99.90;;;;;;5120989;27;20502;-69
2022/03/05 13:21:24;;;;;;;33.33;17.10;;;5.40;99.90;;;;;;5108091;27;20558;-69
2022/03/05 13:24:03;;;;;;;32.80;17.83;;;5.20;99.90;;;;;;5123403;27;20062;-70
2022/03/05 13:26:53;;;;;;;37.47;18.98;;;5.40;99.90;;;;;;5124662;27;20481;-69
2022/03/05 13:29:27;;;;;;;33.47;17.98;;;5.40;99.90;;;;;;5122379;27;20063;-70
2022/03/05 13:32:13;;;;;;;34.25;17.85;;;5.60;99.90;;;;;;5123204;27;20039;-71
2022/03/05 13:35:03;;;;;;;33.08;17.02;;;5.60;99.90;;;;;;5120715;27;20047;-71
2022/03/05 13:38:07;;;;;;;36.25;18.33;;;5.70;99.90;;;;;;5127839;27;20031;-71
2022/03/05 13:40:42;;;;;;;34.97;17.35;;;5.80;99.90;;;;;;5110162;27;20540;-71
2022/03/05 13:43:08;;;;;;;34.67;18.73;;;5.80;99.90;;;;;;5111696;27;20142;-60
2022/03/05 13:45:39;;;;;;;33.35;18.02;;;5.90;99.90;;;;;;5128062;27;20581;-60
2022/03/05 13:48:41;;;;;;;42.92;20.83;;;6.00;99.90;;;;;;5126602;27;20043;-71
2022/03/05 13:51:35;;;;;;;37.20;19.55;;;6.20;99.90;;;;;;5139479;27;20494;-71
2022/03/05 13:54:22;;;;;;;36.78;18.70;;;6.20;99.90;;;;;;5148057;27;20070;-71
2022/03/05 13:56:59;;;;;;;36.08;17.92;;;6.30;99.90;;;;;;5148369;27;20034;-66
2022/03/05 13:59:56;;;;;;;35.22;18.25;;;6.30;99.90;;;;;;5148531;27;20041;-72
2022/03/05 14:02:51;;;;;;;38.08;20.80;;;6.30;99.90;;;;;;5149379;27;20518;-72
2022/03/05 14:05:37;;;;;;;33.42;17.50;;;6.30;99.90;;;;;;5145227;27;20501;-72
2022/03/05 14:08:33;;;;;;;34.05;18.92;;;6.40;99.90;;;;;;5147815;27;20523;-72